createdAt,value
2023-03-05T00:01:34.094Z,71.16
2023-03-05T00:04:03.351Z,70.76
2023-03-05T00:06:31.881Z,71.21
2023-03-05T00:08:59.543Z,70.72
2023-03-05T00:11:30.234Z,70.94
2023-03-05T00:13:58.631Z,71.17
2023-03-05T00:16:27.395Z,71.26
2023-03-05T00:18:57.098Z,71.00
2023-03-05T00:21:43.034Z,71.59
2023-03-05T00:24:18.523Z,70.95
2023-03-05T00:26:46.389Z,71.50
2023-03-05T00:29:19.646Z,71.36
2023-03-05T00:31:46.793Z,71.37
2023-03-05T00:34:17.527Z,71.34
2023-03-05T00:36:49.469Z,71.33
2023-03-05T00:39:19.167Z,70.62
2023-03-05T00:41:46.337Z,70.57
2023-03-05T00:44:13.616Z,71.02
2023-03-05T00:46:41.318Z,71.03
2023-03-05T00:49:08.784Z,71.13
2023-03-05T00:51:35.908Z,71.79
2023-03-05T00:54:04.621Z,71.01
2023-03-05T00:56:32.278Z,71.02
2023-03-05T00:58:59.469Z,71.11
2023-03-05T01:01:28.563Z,71.14
2023-03-05T01:04:00.146Z,70.97
2023-03-05T01:06:27.993Z,71.39
2023-03-05T01:08:56.578Z,71.40
2023-03-05T01:11:24.117Z,71.20
2023-03-05T01:13:51.281Z,70.47
2023-03-05T01:16:19.719Z,70.87
2023-03-05T01:18:46.777Z,71.03
2023-03-05T01:21:13.962Z,71.58
2023-03-05T01:23:41.096Z,71.48
2023-03-05T01:26:08.677Z,70.92
2023-03-05T01:28:36.786Z,70.95
2023-03-05T01:31:08.774Z,70.57
2023-03-05T01:33:35.895Z,71.94
2023-03-05T01:36:08.853Z,71.22
2023-03-05T01:38:36.586Z,71.04
2023-03-05T01:41:04.041Z,71.12
2023-03-05T01:43:31.689Z,71.23
2023-03-05T01:46:16.967Z,71.40
2023-03-05T01:48:53.914Z,71.16
2023-03-05T01:51:26.280Z,71.71
2023-03-05T01:53:55.367Z,71.87
2023-03-05T01:56:22.484Z,71.11
2023-03-05T01:58:51.380Z,71.22
2023-03-05T02:01:19.442Z,71.51
2023-03-05T02:03:48.619Z,71.99
2023-03-05T02:06:16.902Z,71.74
2023-03-05T02:08:44.032Z,71.67
2023-03-05T02:11:11.260Z,71.66
2023-03-05T02:13:40.771Z,71.74
2023-03-05T02:16:08.231Z,71.37
2023-03-05T02:18:35.359Z,70.83
2023-03-05T02:21:08.474Z,71.73
2023-03-05T02:23:38.108Z,71.81
2023-03-05T02:26:09.507Z,70.99
2023-03-05T02:28:57.973Z,71.67
2023-03-05T02:31:27.270Z,72.36
2023-03-05T02:33:56.359Z,71.02
2023-03-05T02:36:26.696Z,71.80
2023-03-05T02:38:57.093Z,72.19
2023-03-05T02:41:24.755Z,71.56
2023-03-05T02:43:52.764Z,72.57
2023-03-05T02:46:20.043Z,72.08
2023-03-05T02:48:49.553Z,72.14
2023-03-05T02:51:17.332Z,72.74
2023-03-05T02:53:45.618Z,71.69
2023-03-05T02:56:13.072Z,71.31
2023-03-05T02:58:40.271Z,72.28
2023-03-05T03:01:09.989Z,72.35
2023-03-05T03:03:37.618Z,72.01
2023-03-05T03:06:05.482Z,73.15
2023-03-05T03:08:32.950Z,72.52
2023-03-05T03:11:10.071Z,72.20
2023-03-05T03:13:37.194Z,72.68
2023-03-05T03:16:12.005Z,72.63
2023-03-05T03:18:39.388Z,72.49
2023-03-05T03:21:07.052Z,72.58
2023-03-05T03:23:34.596Z,72.78
2023-03-05T03:26:01.712Z,72.97
2023-03-05T03:28:28.795Z,73.07
2023-03-05T03:30:55.885Z,73.07
2023-03-05T03:33:23.040Z,72.47
2023-03-05T03:35:50.309Z,72.59
2023-03-05T03:38:17.519Z,72.67
2023-03-05T03:40:44.579Z,72.22
2023-03-05T03:43:11.659Z,72.51
2023-03-05T03:45:43.865Z,72.30
2023-03-05T03:48:11.844Z,72.48
2023-03-05T03:50:41.198Z,72.31
2023-03-05T03:53:09.651Z,72.63
2023-03-05T03:55:36.841Z,72.35
2023-03-05T03:58:04.271Z,71.94
2023-03-05T04:00:31.754Z,72.40
2023-03-05T04:02:59.876Z,72.52
2023-03-05T04:05:27.024Z,71.50
2023-03-05T04:07:54.944Z,72.54
2023-03-05T04:10:22.200Z,71.90
2023-03-05T04:12:50.618Z,72.56
2023-03-05T04:15:17.756Z,72.10
2023-03-05T04:17:44.742Z,72.67
2023-03-05T04:20:12.617Z,72.17
2023-03-05T04:22:39.657Z,72.73
2023-03-05T04:25:08.545Z,73.17
2023-03-05T04:27:37.619Z,72.83
2023-03-05T04:30:05.721Z,72.99
2023-03-05T04:32:32.875Z,71.88
2023-03-05T04:34:59.947Z,72.49
2023-03-05T04:37:27.412Z,72.76
2023-03-05T04:39:54.473Z,72.75
2023-03-05T04:42:21.596Z,73.22
2023-03-05T04:44:50.119Z,72.73
2023-03-05T04:47:18.643Z,72.50
2023-03-05T04:49:45.972Z,72.60
2023-03-05T04:52:14.772Z,72.58
2023-03-05T04:54:41.898Z,72.13
2023-03-05T04:57:09.413Z,72.26
2023-03-05T04:59:38.140Z,73.12
2023-03-05T05:02:05.664Z,72.58
2023-03-05T05:04:33.060Z,73.04
2023-03-05T05:07:00.192Z,72.81
2023-03-05T05:09:27.418Z,72.82
2023-03-05T05:11:55.038Z,72.48
2023-03-05T05:14:22.692Z,72.62
2023-03-05T05:16:49.713Z,72.77
2023-03-05T05:19:17.492Z,73.07
2023-03-05T05:21:44.548Z,73.29
2023-03-05T05:24:11.766Z,72.73
2023-03-05T05:26:38.856Z,73.20
2023-03-05T05:29:06.135Z,72.64
2023-03-05T05:31:33.329Z,72.56
2023-03-05T05:34:00.521Z,72.73
2023-03-05T05:36:27.903Z,72.54
2023-03-05T05:38:55.092Z,73.23
2023-03-05T05:41:22.620Z,72.86
2023-03-05T05:43:50.064Z,72.45
2023-03-05T05:46:20.382Z,72.20
2023-03-05T05:48:48.579Z,72.37
2023-03-05T05:51:22.430Z,72.38
2023-03-05T05:53:50.400Z,72.61
2023-03-05T05:56:18.740Z,73.15
2023-03-05T05:58:48.300Z,72.78
2023-03-05T06:01:28.265Z,73.29
2023-03-05T06:03:57.204Z,72.01
2023-03-05T06:06:26.856Z,72.70
2023-03-05T06:08:54.640Z,72.67
2023-03-05T06:11:22.583Z,73.53
2023-03-05T06:13:50.311Z,72.82
2023-03-05T06:16:21.572Z,73.02
2023-03-05T06:18:48.695Z,73.37
2023-03-05T06:21:18.551Z,73.16
2023-03-05T06:23:46.932Z,74.30
2023-03-05T06:26:19.008Z,73.68
2023-03-05T06:28:46.787Z,73.81
2023-03-05T06:31:17.675Z,73.04
2023-03-05T06:33:45.784Z,73.90
2023-03-05T06:36:16.456Z,73.84
2023-03-05T06:38:44.098Z,75.33
2023-03-05T06:41:15.261Z,74.77
2023-03-05T06:43:45.103Z,75.27
2023-03-05T06:46:22.930Z,75.36
2023-03-05T06:48:50.956Z,75.26
2023-03-05T06:51:20.870Z,75.30
2023-03-05T06:53:49.670Z,75.67
2023-03-05T06:56:18.379Z,76.21
2023-03-05T06:58:48.257Z,75.76
2023-03-05T07:01:15.977Z,75.42
2023-03-05T07:03:44.069Z,76.32
2023-03-05T07:06:16.180Z,75.37
2023-03-05T07:08:46.928Z,75.79
2023-03-05T07:11:18.099Z,75.34
2023-03-05T07:13:47.914Z,76.25
2023-03-05T07:16:19.119Z,76.55
2023-03-05T07:18:46.668Z,76.99
2023-03-05T07:21:26.669Z,76.68
2023-03-05T07:23:55.928Z,77.15
2023-03-05T07:26:24.006Z,77.54
2023-03-05T07:28:51.566Z,77.54
2023-03-05T07:31:23.978Z,77.30
2023-03-05T07:33:51.320Z,78.11
2023-03-05T07:36:18.965Z,78.14
2023-03-05T07:38:46.508Z,79.07
2023-03-05T07:41:20.322Z,79.46
2023-03-05T07:43:49.782Z,78.01
2023-03-05T07:46:19.812Z,78.92
2023-03-05T07:48:46.934Z,79.82
2023-03-05T07:51:17.920Z,79.34
2023-03-05T07:53:49.636Z,80.77
2023-03-05T07:56:32.072Z,80.72
2023-03-05T07:59:05.073Z,80.13
2023-03-05T08:01:33.721Z,81.05
2023-03-05T08:04:02.728Z,81.20
2023-03-05T08:06:30.113Z,81.62
2023-03-05T08:08:58.942Z,82.05
2023-03-05T08:11:26.863Z,82.28
2023-03-05T08:13:53.960Z,81.92
2023-03-05T08:16:22.232Z,82.71
2023-03-05T08:18:49.789Z,83.08
2023-03-05T08:21:27.032Z,83.00
2023-03-05T08:23:54.232Z,83.71
2023-03-05T08:26:25.114Z,83.38
2023-03-05T08:28:52.675Z,84.17
2023-03-05T08:31:23.261Z,83.37
2023-03-05T08:33:54.536Z,84.44
2023-03-05T08:36:22.234Z,84.01
2023-03-05T08:38:50.959Z,84.46
2023-03-05T08:41:19.488Z,84.34
2023-03-05T08:43:46.760Z,84.66
2023-03-05T08:46:16.421Z,85.93
2023-03-05T08:48:44.157Z,85.32
2023-03-05T08:51:18.357Z,85.47
2023-03-05T08:53:54.538Z,84.87
2023-03-05T08:56:21.834Z,85.17
2023-03-05T08:58:49.415Z,85.61
2023-03-05T09:01:16.659Z,85.79
2023-03-05T09:03:45.159Z,86.13
2023-03-05T09:06:13.248Z,85.50
2023-03-05T09:08:40.917Z,85.83
2023-03-05T09:11:11.515Z,86.10
2023-03-05T09:13:38.973Z,85.44
2023-03-05T09:16:12.075Z,84.77
2023-03-05T09:18:40.752Z,84.97
2023-03-05T09:21:14.218Z,84.90
2023-03-05T09:23:42.110Z,84.19
2023-03-05T09:26:12.260Z,84.05
2023-03-05T09:28:40.646Z,84.47
2023-03-05T09:31:09.817Z,83.73
2023-03-05T09:33:39.815Z,83.07
2023-03-05T09:36:21.394Z,83.11
2023-03-05T09:38:49.101Z,82.85
2023-03-05T09:42:03.960Z,82.98
2023-03-05T09:45:11.425Z,82.66
2023-03-05T09:48:06.908Z,82.79
2023-03-05T09:50:59.104Z,82.29
2023-03-05T09:53:51.133Z,81.56
2023-03-05T09:56:28.322Z,80.99
2023-03-05T09:59:04.788Z,80.52
2023-03-05T10:01:42.509Z,79.53
2023-03-05T10:04:23.894Z,79.97
2023-03-05T10:07:05.547Z,79.95
2023-03-05T10:09:44.914Z,79.24
2023-03-05T10:12:34.656Z,79.03
2023-03-05T10:15:03.326Z,78.42
2023-03-05T10:17:55.264Z,76.95
2023-03-05T10:20:22.694Z,77.79
2023-03-05T10:23:29.413Z,77.47
2023-03-05T10:26:11.953Z,77.66
2023-03-05T10:29:05.105Z,77.07
2023-03-05T10:31:38.341Z,77.14
2023-03-05T10:34:25.617Z,77.27
2023-03-05T10:37:21.398Z,76.61
2023-03-05T10:40:16.952Z,76.97
2023-03-05T10:42:56.855Z,76.02
2023-03-05T10:45:36.252Z,76.06
2023-03-05T10:48:31.890Z,75.59
2023-03-05T10:51:15.899Z,75.17
2023-03-05T10:54:15.763Z,74.37
2023-03-05T10:56:42.822Z,73.98
2023-03-05T10:59:09.960Z,73.76
2023-03-05T11:01:37.636Z,73.53
2023-03-05T11:04:10.831Z,73.87
2023-03-05T11:06:45.913Z,72.00
2023-03-05T11:10:00.729Z,72.60
2023-03-05T11:12:31.793Z,72.65
2023-03-05T11:15:14.003Z,73.49
2023-03-05T11:17:48.032Z,72.75
2023-03-05T11:20:27.457Z,72.66
2023-03-05T11:23:18.112Z,70.60
2023-03-05T11:25:57.182Z,71.89
2023-03-05T11:28:53.098Z,70.06
2023-03-05T11:31:28.300Z,70.83
2023-03-05T11:34:07.072Z,70.93
2023-03-05T11:36:38.875Z,70.49
2023-03-05T11:39:05.937Z,70.27
2023-03-05T11:41:41.773Z,70.30
2023-03-05T11:44:49.488Z,70.72
2023-03-05T11:47:32.293Z,69.56
2023-03-05T11:50:18.521Z,70.52
2023-03-05T11:52:57.613Z,69.37
2023-03-05T11:55:50.316Z,69.94
2023-03-05T11:58:26.085Z,69.22
2023-03-05T12:00:53.915Z,69.33
2023-03-05T12:03:29.741Z,69.02
2023-03-05T12:06:16.554Z,68.55
2023-03-05T12:08:50.355Z,67.62
2023-03-05T12:11:27.430Z,67.17
2023-03-05T12:14:33.392Z,67.10
2023-03-05T12:17:42.270Z,66.50
2023-03-05T12:20:55.241Z,66.42
2023-03-05T12:23:23.108Z,66.03
2023-03-05T12:25:57.020Z,65.76
2023-03-05T12:28:37.708Z,66.20
2023-03-05T12:31:34.927Z,65.32
2023-03-05T12:34:40.495Z,64.50
2023-03-05T12:37:33.310Z,63.84
2023-03-05T12:40:11.661Z,63.69
2023-03-05T12:42:39.214Z,63.08
2023-03-05T12:45:09.620Z,63.38
2023-03-05T12:47:40.884Z,63.62
2023-03-05T12:50:29.696Z,63.08
2023-03-05T12:53:20.643Z,62.67
2023-03-05T12:56:19.698Z,63.35
2023-03-05T12:58:56.632Z,63.08
2023-03-05T13:01:39.933Z,62.21
2023-03-05T13:04:16.273Z,62.40
2023-03-05T13:06:43.634Z,61.32
2023-03-05T13:09:31.612Z,61.71
2023-03-05T13:11:58.822Z,61.01
2023-03-05T13:14:51.210Z,61.54
2023-03-05T13:17:29.305Z,60.98
2023-03-05T13:19:59.731Z,61.40
2023-03-05T13:22:28.261Z,57.60
2023-03-05T13:25:16.758Z,58.32
2023-03-05T13:27:44.024Z,58.12
2023-03-05T13:30:28.584Z,57.57
2023-03-05T13:33:05.708Z,56.74
2023-03-05T13:35:33.979Z,56.28
2023-03-05T13:38:02.202Z,55.50
2023-03-05T13:40:33.547Z,57.26
2023-03-05T13:43:12.695Z,57.96
2023-03-05T13:45:40.433Z,57.32
2023-03-05T13:48:07.847Z,54.76
2023-03-05T13:50:40.070Z,54.04
2023-03-05T13:53:32.677Z,54.83
2023-03-05T13:56:07.457Z,55.86
2023-03-05T13:58:56.664Z,56.47
2023-03-05T14:01:42.285Z,56.99
2023-03-05T14:04:15.695Z,56.56
2023-03-05T14:07:00.635Z,56.76
2023-03-05T14:09:46.366Z,57.16
2023-03-05T14:12:36.062Z,56.62
2023-03-05T14:15:19.196Z,55.95
2023-03-05T14:17:46.513Z,55.73
2023-03-05T14:20:13.506Z,56.04
2023-03-05T14:22:45.808Z,55.93
2023-03-05T14:25:36.501Z,54.01
2023-03-05T14:28:08.269Z,54.95
2023-03-05T14:30:36.361Z,53.84
2023-03-05T14:33:04.431Z,52.26
2023-03-05T14:35:31.935Z,52.47
2023-03-05T14:38:00.066Z,53.35
2023-03-05T14:40:36.547Z,53.88
2023-03-05T14:43:06.154Z,53.52
2023-03-05T14:45:38.106Z,53.82
2023-03-05T14:48:08.345Z,53.57
2023-03-05T14:50:42.601Z,54.03
2023-03-05T14:53:35.029Z,53.89
2023-03-05T14:56:02.374Z,54.49
2023-03-05T14:58:32.520Z,53.73
2023-03-05T15:00:59.798Z,54.32
2023-03-05T15:03:28.209Z,53.92
2023-03-05T15:05:58.819Z,54.30
2023-03-05T15:08:30.562Z,53.90
2023-03-05T15:10:58.797Z,54.38
2023-03-05T15:13:27.028Z,53.96
2023-03-05T15:15:55.206Z,54.02
2023-03-05T15:18:23.802Z,54.00
2023-03-05T15:20:54.949Z,53.72
2023-03-05T15:23:22.330Z,54.25
2023-03-05T15:25:50.270Z,54.83
2023-03-05T15:28:17.889Z,55.56
2023-03-05T15:30:47.912Z,55.32
2023-03-05T15:33:17.281Z,55.59
2023-03-05T15:35:45.090Z,55.42
2023-03-05T15:38:12.340Z,55.09
2023-03-05T15:40:39.596Z,55.04
2023-03-05T15:43:06.849Z,55.29
2023-03-05T15:45:34.245Z,55.53
2023-03-05T15:48:01.917Z,55.55
2023-03-05T15:50:29.384Z,55.11
2023-03-05T15:52:57.366Z,55.38
2023-03-05T15:55:24.784Z,55.33
2023-03-05T15:57:53.615Z,55.52
2023-03-05T16:00:26.930Z,55.67
2023-03-05T16:02:54.224Z,55.66
2023-03-05T16:05:21.456Z,56.54
2023-03-05T16:07:51.848Z,55.91
2023-03-05T16:10:25.391Z,56.19
2023-03-05T16:13:08.275Z,56.09
2023-03-05T16:15:40.299Z,56.03
2023-03-05T16:18:15.983Z,55.35
2023-03-05T16:20:43.090Z,55.35
2023-03-05T16:23:10.232Z,56.03
2023-03-05T16:25:38.020Z,56.69
2023-03-05T16:28:05.733Z,56.85
2023-03-05T16:30:33.224Z,56.42
2023-03-05T16:33:00.859Z,57.31
2023-03-05T16:35:28.192Z,57.39
2023-03-05T16:37:55.534Z,57.56
2023-03-05T16:40:22.921Z,56.85
2023-03-05T16:42:49.982Z,56.82
2023-03-05T16:45:17.125Z,56.65
2023-03-05T16:47:44.224Z,56.20
2023-03-05T16:50:12.539Z,57.50
2023-03-05T16:52:40.144Z,57.64
2023-03-05T16:55:07.714Z,57.92
2023-03-05T16:57:35.424Z,57.63
2023-03-05T17:00:04.203Z,58.23
2023-03-05T17:02:32.091Z,58.89
2023-03-05T17:05:00.021Z,58.61
2023-03-05T17:07:27.878Z,59.28
2023-03-05T17:09:54.916Z,58.67
2023-03-05T17:12:22.919Z,58.54
2023-03-05T17:14:50.074Z,59.29
2023-03-05T17:17:17.622Z,58.52
2023-03-05T17:19:44.684Z,58.46
2023-03-05T17:22:12.973Z,58.43
2023-03-05T17:24:42.927Z,57.98
2023-03-05T17:27:10.455Z,58.69
2023-03-05T17:29:37.464Z,58.67
2023-03-05T17:32:04.978Z,58.84
2023-03-05T17:34:36.597Z,59.09
2023-03-05T17:37:05.329Z,59.12
2023-03-05T17:39:32.895Z,59.44
2023-03-05T17:42:01.154Z,59.44
2023-03-05T17:44:28.272Z,60.14
2023-03-05T17:46:55.438Z,60.52
2023-03-05T17:49:22.667Z,60.61
2023-03-05T17:51:49.832Z,60.11
2023-03-05T17:54:16.964Z,60.07
2023-03-05T17:56:44.042Z,59.61
2023-03-05T17:59:11.437Z,59.25
2023-03-05T18:01:38.848Z,59.42
2023-03-05T18:04:05.960Z,59.46
2023-03-05T18:06:33.202Z,59.31
2023-03-05T18:09:00.500Z,59.77
2023-03-05T18:11:29.024Z,59.95
2023-03-05T18:13:56.490Z,60.20
2023-03-05T18:16:25.209Z,60.38
2023-03-05T18:18:52.770Z,59.80
2023-03-05T18:21:22.713Z,59.92
2023-03-05T18:23:51.344Z,59.69
2023-03-05T18:26:18.774Z,60.38
2023-03-05T18:28:48.690Z,60.62
2023-03-05T18:31:15.755Z,60.31
2023-03-05T18:33:43.257Z,60.58
2023-03-05T18:36:12.001Z,60.79
2023-03-05T18:38:39.222Z,61.39
2023-03-05T18:41:06.660Z,61.17
2023-03-05T18:43:34.488Z,61.23
2023-03-05T18:46:05.082Z,60.93
2023-03-05T18:48:32.369Z,61.68
2023-03-05T18:51:01.244Z,61.59
2023-03-05T18:53:29.010Z,62.29
2023-03-05T18:55:56.010Z,61.98
2023-03-05T18:58:24.488Z,61.70
2023-03-05T19:00:53.086Z,62.37
2023-03-05T19:03:22.567Z,61.70
2023-03-05T19:05:51.246Z,62.24
2023-03-05T19:08:19.147Z,61.79
2023-03-05T19:10:46.644Z,62.83
2023-03-05T19:13:43.782Z,62.05
2023-03-05T19:16:18.009Z,62.11
2023-03-05T19:19:22.722Z,62.84
2023-03-05T19:21:58.645Z,63.69
2023-03-05T19:24:31.345Z,63.88
2023-03-05T19:27:01.200Z,63.76
2023-03-05T19:29:34.356Z,64.47
2023-03-05T19:32:01.791Z,63.70
2023-03-05T19:34:28.915Z,64.29
2023-03-05T19:36:55.974Z,64.00
2023-03-05T19:39:23.241Z,64.35
2023-03-05T19:41:50.338Z,64.44
2023-03-05T19:44:18.678Z,64.85
2023-03-05T19:46:48.503Z,64.89
2023-03-05T19:49:17.358Z,64.93
2023-03-05T19:51:45.629Z,64.44
2023-03-05T19:54:15.590Z,64.81
2023-03-05T19:56:47.044Z,65.03
2023-03-05T19:59:18.930Z,65.14
2023-03-05T20:01:46.426Z,64.56
2023-03-05T20:04:21.546Z,65.82
2023-03-05T20:06:48.745Z,65.12
2023-03-05T20:09:17.185Z,65.26
2023-03-05T20:11:45.169Z,65.32
2023-03-05T20:14:14.637Z,65.89
2023-03-05T20:16:43.548Z,65.47
2023-03-05T20:19:17.982Z,65.35
2023-03-05T20:21:46.221Z,65.11
2023-03-05T20:24:16.514Z,64.89
2023-03-05T20:26:46.288Z,65.52
2023-03-05T20:29:17.585Z,64.93
2023-03-05T20:31:46.454Z,65.59
2023-03-05T20:34:16.941Z,65.38
2023-03-05T20:36:44.638Z,65.14
2023-03-05T20:39:12.193Z,65.72
2023-03-05T20:41:40.619Z,64.94
2023-03-05T20:44:08.773Z,65.62
2023-03-05T20:47:06.960Z,65.78
2023-03-05T20:49:37.289Z,65.51
2023-03-05T20:52:04.700Z,66.29
2023-03-05T20:54:31.934Z,65.78
2023-03-05T20:56:59.234Z,65.53
2023-03-05T20:59:27.533Z,65.49
2023-03-05T21:01:54.884Z,65.46
2023-03-05T21:04:22.180Z,65.48
2023-03-05T21:06:54.275Z,65.45
2023-03-05T21:09:21.643Z,66.14
2023-03-05T21:11:48.732Z,65.70
2023-03-05T21:14:15.913Z,65.43
2023-03-05T21:16:43.073Z,64.99
2023-03-05T21:19:10.283Z,65.82
2023-03-05T21:21:39.064Z,65.52
2023-03-05T21:24:06.786Z,65.13
2023-03-05T21:26:33.972Z,65.36
2023-03-05T21:29:01.161Z,65.21
2023-03-05T21:31:29.242Z,65.80
2023-03-05T21:33:56.423Z,65.44
2023-03-05T21:36:23.482Z,65.93
2023-03-05T21:38:50.550Z,66.13
2023-03-05T21:41:20.603Z,65.52
2023-03-05T21:43:48.998Z,65.84
2023-03-05T21:46:16.409Z,65.34
2023-03-05T21:48:43.454Z,65.76
2023-03-05T21:52:09.616Z,66.13
2023-03-05T21:54:42.002Z,66.92
2023-03-05T21:57:12.354Z,66.23
2023-03-05T21:59:42.616Z,66.40
2023-03-05T22:02:16.561Z,66.75
2023-03-05T22:04:44.587Z,67.14
2023-03-05T22:07:12.649Z,67.31
2023-03-05T22:09:40.198Z,66.57
2023-03-05T22:13:10.484Z,67.24
2023-03-05T22:15:48.507Z,66.58
2023-03-05T22:18:20.126Z,67.07
2023-03-05T22:20:48.329Z,67.22
2023-03-05T22:23:17.425Z,66.62
2023-03-05T22:25:44.630Z,66.67
2023-03-05T22:28:13.209Z,66.98
2023-03-05T22:30:46.603Z,67.25
2023-03-05T22:33:13.771Z,67.22
2023-03-05T22:35:41.907Z,67.09
2023-03-05T22:38:11.242Z,66.94
2023-03-05T22:40:45.986Z,66.90
2023-03-05T22:43:14.367Z,67.57
2023-03-05T22:45:41.976Z,67.35
2023-03-05T22:48:10.487Z,67.68
2023-03-05T22:50:39.601Z,68.06
2023-03-05T22:53:07.441Z,67.67
2023-03-05T22:55:40.717Z,67.27
2023-03-05T22:58:08.339Z,66.89
2023-03-05T23:00:35.832Z,67.45
2023-03-05T23:03:03.236Z,67.72
2023-03-05T23:05:30.348Z,67.88
2023-03-05T23:07:58.729Z,68.18
2023-03-05T23:10:28.855Z,68.36
2023-03-05T23:12:59.655Z,67.39
2023-03-05T23:15:34.556Z,68.00
2023-03-05T23:18:03.270Z,68.02
2023-03-05T23:20:33.763Z,67.94
2023-03-05T23:23:01.693Z,68.09
2023-03-05T23:25:31.715Z,68.48
2023-03-05T23:28:00.175Z,68.71
2023-03-05T23:30:37.328Z,68.49
2023-03-05T23:33:27.478Z,68.56
2023-03-05T23:36:00.118Z,68.69
2023-03-05T23:38:29.422Z,68.99
2023-03-05T23:41:01.195Z,68.93
2023-03-05T23:43:30.148Z,68.86
2023-03-05T23:45:57.476Z,68.91
2023-03-05T23:48:26.519Z,69.09
2023-03-05T23:50:56.155Z,69.70
2023-03-05T23:53:31.351Z,69.44
2023-03-05T23:55:58.774Z,69.30
2023-03-05T23:58:26.526Z,68.91
